sensor_id;sensor_type;location;lat;lon;timestamp;temperature;humidity
2439;DHT22;14509;47.992;7.848;2024-03-07T00:00:49;12.60;53.80
2439;DHT22;14509;47.992;7.848;2024-03-07T00:02:54;12.50;53.70
2439;DHT22;14509;47.992;7.848;2024-03-07T00:05:20;12.70;53.90
2439;DHT22;14509;47.992;7.848;2024-03-07T00:07:22;12.60;53.90
2439;DHT22;14509;47.992;7.848;2024-03-07T00:09:24;12.70;53.90
2439;DHT22;14509;47.992;7.848;2024-03-07T00:11:27;12.70;53.80
2439;DHT22;14509;47.992;7.848;2024-03-07T00:13:29;12.70;53.80
2439;DHT22;14509;47.992;7.848;2024-03-07T00:15:31;12.70;53.90
2439;DHT22;14509;47.992;7.848;2024-03-07T00:17:33;12.70;53.90
2439;DHT22;14509;47.992;7.848;2024-03-07T00:19:35;12.70;53.90
2439;DHT22;14509;47.992;7.848;2024-03-07T00:21:37;12.70;53.80
2439;DHT22;14509;47.992;7.848;2024-03-07T00:23:38;12.70;53.80
2439;DHT22;14509;47.992;7.848;2024-03-07T00:25:40;12.70;53.80
2439;DHT22;14509;47.992;7.848;2024-03-07T00:27:43;13.00;54.10
2439;DHT22;14509;47.992;7.848;2024-03-07T00:29:45;12.70;53.80
2439;DHT22;14509;47.992;7.848;2024-03-07T00:31:53;12.70;53.70
2439;DHT22;14509;47.992;7.848;2024-03-07T00:33:55;12.70;53.70
2439;DHT22;14509;47.992;7.848;2024-03-07T00:35:57;12.70;53.70
2439;DHT22;14509;47.992;7.848;2024-03-07T00:38:00;12.60;53.50
2439;DHT22;14509;47.992;7.848;2024-03-07T00:40:02;13.00;53.70
2439;DHT22;14509;47.992;7.848;2024-03-07T00:42:03;12.70;53.40
2439;DHT22;14509;47.992;7.848;2024-03-07T00:44:07;12.70;53.20
2439;DHT22;14509;47.992;7.848;2024-03-07T00:46:09;12.70;53.10
2439;DHT22;14509;47.992;7.848;2024-03-07T00:48:11;12.70;53.20
2439;DHT22;14509;47.992;7.848;2024-03-07T00:50:13;12.60;53.20
2439;DHT22;14509;47.992;7.848;2024-03-07T00:52:15;12.70;53.30
2439;DHT22;14509;47.992;7.848;2024-03-07T00:54:16;12.60;53.20
2439;DHT22;14509;47.992;7.848;2024-03-07T00:56:18;12.60;53.30
2439;DHT22;14509;47.992;7.848;2024-03-07T00:58:20;12.60;53.40
2439;DHT22;14509;47.992;7.848;2024-03-07T01:00:23;12.60;53.40
2439;DHT22;14509;47.992;7.848;2024-03-07T01:02:25;12.60;53.30
2439;DHT22;14509;47.992;7.848;2024-03-07T01:04:27;13.60;54.10
2439;DHT22;14509;47.992;7.848;2024-03-07T01:06:31;12.60;53.40
2439;DHT22;14509;47.992;7.848;2024-03-07T01:08:33;12.60;53.30
2439;DHT22;14509;47.992;7.848;2024-03-07T01:10:36;12.60;53.40
2439;DHT22;14509;47.992;7.848;2024-03-07T01:12:38;12.60;53.40
2439;DHT22;14509;47.992;7.848;2024-03-07T01:14:40;12.60;53.50
2439;DHT22;14509;47.992;7.848;2024-03-07T01:16:43;12.60;53.50
2439;DHT22;14509;47.992;7.848;2024-03-07T01:18:45;12.60;53.50
2439;DHT22;14509;47.992;7.848;2024-03-07T01:20:47;12.60;54.10
2439;DHT22;14509;47.992;7.848;2024-03-07T01:22:49;12.50;53.40
2439;DHT22;14509;47.992;7.848;2024-03-07T01:24:52;12.50;53.50
2439;DHT22;14509;47.992;7.848;2024-03-07T01:26:54;12.50;53.50
2439;DHT22;14509;47.992;7.848;2024-03-07T01:28:56;12.50;53.60
2439;DHT22;14509;47.992;7.848;2024-03-07T01:30:58;12.50;53.60
2439;DHT22;14509;47.992;7.848;2024-03-07T01:33:02;12.50;53.60
2439;DHT22;14509;47.992;7.848;2024-03-07T01:35:04;12.50;53.50
2439;DHT22;14509;47.992;7.848;2024-03-07T01:37:07;12.50;53.60
2439;DHT22;14509;47.992;7.848;2024-03-07T01:39:10;12.50;53.60
2439;DHT22;14509;47.992;7.848;2024-03-07T01:41:13;12.50;53.60
2439;DHT22;14509;47.992;7.848;2024-03-07T01:43:15;12.40;53.50
2439;DHT22;14509;47.992;7.848;2024-03-07T01:45:17;13.10;54.00
2439;DHT22;14509;47.992;7.848;2024-03-07T01:47:19;12.50;53.60
2439;DHT22;14509;47.992;7.848;2024-03-07T01:49:23;12.40;53.40
2439;DHT22;14509;47.992;7.848;2024-03-07T01:51:25;12.40;53.30
2439;DHT22;14509;47.992;7.848;2024-03-07T01:53:27;12.40;53.30
2439;DHT22;14509;47.992;7.848;2024-03-07T01:57:34;12.40;53.20
2439;DHT22;14509;47.992;7.848;2024-03-07T01:59:36;12.40;53.30
2439;DHT22;14509;47.992;7.848;2024-03-07T02:01:39;12.40;53.30
2439;DHT22;14509;47.992;7.848;2024-03-07T02:03:41;12.40;53.30
2439;DHT22;14509;47.992;7.848;2024-03-07T02:05:44;12.40;53.30
2439;DHT22;14509;47.992;7.848;2024-03-07T02:07:46;12.40;53.20
2439;DHT22;14509;47.992;7.848;2024-03-07T02:09:48;12.40;53.30
2439;DHT22;14509;47.992;7.848;2024-03-07T02:11:50;12.40;53.30
2439;DHT22;14509;47.992;7.848;2024-03-07T02:13:52;12.30;53.30
2439;DHT22;14509;47.992;7.848;2024-03-07T02:15:54;12.40;53.50
2439;DHT22;14509;47.992;7.848;2024-03-07T02:17:55;12.40;53.60
2439;DHT22;14509;47.992;7.848;2024-03-07T02:19:58;12.40;53.50
2439;DHT22;14509;47.992;7.848;2024-03-07T02:22:01;12.40;53.60
2439;DHT22;14509;47.992;7.848;2024-03-07T02:24:04;12.40;53.50
2439;DHT22;14509;47.992;7.848;2024-03-07T02:26:06;12.40;53.50
2439;DHT22;14509;47.992;7.848;2024-03-07T02:28:08;12.50;53.60
2439;DHT22;14509;47.992;7.848;2024-03-07T02:30:11;12.30;53.50
2439;DHT22;14509;47.992;7.848;2024-03-07T02:32:13;12.40;53.50
2439;DHT22;14509;47.992;7.848;2024-03-07T02:34:15;12.60;53.70
2439;DHT22;14509;47.992;7.848;2024-03-07T02:36:17;12.40;53.40
2439;DHT22;14509;47.992;7.848;2024-03-07T02:38:20;12.40;53.40
2439;DHT22;14509;47.992;7.848;2024-03-07T02:40:22;12.40;53.40
2439;DHT22;14509;47.992;7.848;2024-03-07T02:42:23;12.40;53.50
2439;DHT22;14509;47.992;7.848;2024-03-07T02:44:24;12.30;53.30
2439;DHT22;14509;47.992;7.848;2024-03-07T02:46:26;12.30;53.30
2439;DHT22;14509;47.992;7.848;2024-03-07T02:48:28;12.30;53.30
2439;DHT22;14509;47.992;7.848;2024-03-07T02:50:30;12.30;53.30
2439;DHT22;14509;47.992;7.848;2024-03-07T02:52:32;12.30;53.30
2439;DHT22;14509;47.992;7.848;2024-03-07T02:54:34;12.30;53.30
2439;DHT22;14509;47.992;7.848;2024-03-07T02:56:36;12.30;53.30
2439;DHT22;14509;47.992;7.848;2024-03-07T02:58:38;12.40;53.40
2439;DHT22;14509;47.992;7.848;2024-03-07T03:00:39;12.40;53.50
2439;DHT22;14509;47.992;7.848;2024-03-07T03:02:41;12.40;53.40
2439;DHT22;14509;47.992;7.848;2024-03-07T03:04:42;12.40;53.30
2439;DHT22;14509;47.992;7.848;2024-03-07T03:06:44;12.40;53.30
2439;DHT22;14509;47.992;7.848;2024-03-07T03:08:47;12.40;53.20
2439;DHT22;14509;47.992;7.848;2024-03-07T03:10:50;12.50;53.20
2439;DHT22;14509;47.992;7.848;2024-03-07T03:12:53;12.40;53.00
2439;DHT22;14509;47.992;7.848;2024-03-07T03:14:54;12.40;52.90
2439;DHT22;14509;47.992;7.848;2024-03-07T03:16:56;12.40;52.70
2439;DHT22;14509;47.992;7.848;2024-03-07T03:18:58;12.90;53.10
2439;DHT22;14509;47.992;7.848;2024-03-07T03:20:59;12.20;52.80
2439;DHT22;14509;47.992;7.848;2024-03-07T03:23:03;12.00;52.70
2439;DHT22;14509;47.992;7.848;2024-03-07T03:25:06;11.90;52.90
2439;DHT22;14509;47.992;7.848;2024-03-07T03:27:09;11.80;53.20
2439;DHT22;14509;47.992;7.848;2024-03-07T03:29:12;11.70;53.30
2439;DHT22;14509;47.992;7.848;2024-03-07T03:31:14;11.60;53.60
2439;DHT22;14509;47.992;7.848;2024-03-07T03:33:16;11.50;53.80
2439;DHT22;14509;47.992;7.848;2024-03-07T03:35:18;11.40;54.00
2439;DHT22;14509;47.992;7.848;2024-03-07T03:37:20;11.30;54.20
2439;DHT22;14509;47.992;7.848;2024-03-07T03:39:22;11.20;54.30
2439;DHT22;14509;47.992;7.848;2024-03-07T03:41:24;11.10;54.30
2439;DHT22;14509;47.992;7.848;2024-03-07T03:43:27;11.10;54.30
2439;DHT22;14509;47.992;7.848;2024-03-07T03:45:30;11.00;54.40
2439;DHT22;14509;47.992;7.848;2024-03-07T03:47:33;10.90;54.40
2439;DHT22;14509;47.992;7.848;2024-03-07T03:49:36;10.90;54.60
2439;DHT22;14509;47.992;7.848;2024-03-07T03:51:38;10.80;54.70
2439;DHT22;14509;47.992;7.848;2024-03-07T03:53:39;10.90;55.00
2439;DHT22;14509;47.992;7.848;2024-03-07T03:55:41;10.70;55.20
2439;DHT22;14509;47.992;7.848;2024-03-07T03:57:44;10.70;55.40
2439;DHT22;14509;47.992;7.848;2024-03-07T03:59:48;10.70;55.50
2439;DHT22;14509;47.992;7.848;2024-03-07T04:01:49;10.70;55.50
2439;DHT22;14509;47.992;7.848;2024-03-07T04:03:51;10.60;55.60
2439;DHT22;14509;47.992;7.848;2024-03-07T04:05:53;10.60;55.90
2439;DHT22;14509;47.992;7.848;2024-03-07T04:07:56;10.60;56.10
2439;DHT22;14509;47.992;7.848;2024-03-07T04:09:59;10.50;56.20
2439;DHT22;14509;47.992;7.848;2024-03-07T04:12:02;10.50;56.20
2439;DHT22;14509;47.992;7.848;2024-03-07T04:14:03;10.50;56.20
2439;DHT22;14509;47.992;7.848;2024-03-07T04:16:07;10.40;56.00
2439;DHT22;14509;47.992;7.848;2024-03-07T04:18:09;10.40;55.90
2439;DHT22;14509;47.992;7.848;2024-03-07T04:20:11;10.40;55.90
2439;DHT22;14509;47.992;7.848;2024-03-07T04:22:14;10.30;56.00
2439;DHT22;14509;47.992;7.848;2024-03-07T04:24:16;10.20;56.10
2439;DHT22;14509;47.992;7.848;2024-03-07T04:26:17;10.20;56.10
2439;DHT22;14509;47.992;7.848;2024-03-07T04:28:19;10.20;56.20
2439;DHT22;14509;47.992;7.848;2024-03-07T04:30:22;10.10;56.20
2439;DHT22;14509;47.992;7.848;2024-03-07T04:32:26;10.10;56.30
2439;DHT22;14509;47.992;7.848;2024-03-07T04:34:27;10.00;56.30
2439;DHT22;14509;47.992;7.848;2024-03-07T04:36:31;10.00;56.30
2439;DHT22;14509;47.992;7.848;2024-03-07T04:38:33;10.00;56.30
2439;DHT22;14509;47.992;7.848;2024-03-07T04:40:35;10.10;56.40
2439;DHT22;14509;47.992;7.848;2024-03-07T04:42:37;9.90;57.20
2439;DHT22;14509;47.992;7.848;2024-03-07T04:44:38;9.90;57.20
2439;DHT22;14509;47.992;7.848;2024-03-07T04:46:40;9.90;57.20
2439;DHT22;14509;47.992;7.848;2024-03-07T04:48:44;9.90;57.40
2439;DHT22;14509;47.992;7.848;2024-03-07T04:50:46;9.90;57.50
2439;DHT22;14509;47.992;7.848;2024-03-07T04:52:48;9.80;57.50
2439;DHT22;14509;47.992;7.848;2024-03-07T04:54:50;9.80;57.50
2439;DHT22;14509;47.992;7.848;2024-03-07T04:56:52;9.80;57.50
2439;DHT22;14509;47.992;7.848;2024-03-07T04:58:54;9.80;57.50
2439;DHT22;14509;47.992;7.848;2024-03-07T05:00:56;9.80;57.50
2439;DHT22;14509;47.992;7.848;2024-03-07T05:02:58;9.80;57.50
2439;DHT22;14509;47.992;7.848;2024-03-07T05:05:02;9.70;57.40
2439;DHT22;14509;47.992;7.848;2024-03-07T05:07:04;9.70;57.60
2439;DHT22;14509;47.992;7.848;2024-03-07T05:09:07;9.70;57.80
2439;DHT22;14509;47.992;7.848;2024-03-07T05:11:09;9.70;58.00
2439;DHT22;14509;47.992;7.848;2024-03-07T05:13:11;9.70;58.00
2439;DHT22;14509;47.992;7.848;2024-03-07T05:15:13;9.80;58.10
2439;DHT22;14509;47.992;7.848;2024-03-07T05:17:14;9.80;57.90
2439;DHT22;14509;47.992;7.848;2024-03-07T05:19:16;9.80;57.60
2439;DHT22;14509;47.992;7.848;2024-03-07T05:21:19;9.80;57.50
2439;DHT22;14509;47.992;7.848;2024-03-07T05:23:35;9.70;58.10
2439;DHT22;14509;47.992;7.848;2024-03-07T05:25:37;9.80;57.60
2439;DHT22;14509;47.992;7.848;2024-03-07T05:27:40;9.70;57.50
2439;DHT22;14509;47.992;7.848;2024-03-07T05:29:42;9.70;57.50
2439;DHT22;14509;47.992;7.848;2024-03-07T05:31:44;9.60;57.40
2439;DHT22;14509;47.992;7.848;2024-03-07T05:33:47;9.60;57.90
2439;DHT22;14509;47.992;7.848;2024-03-07T05:35:49;9.70;57.40
2439;DHT22;14509;47.992;7.848;2024-03-07T05:38:04;9.50;57.40
2439;DHT22;14509;47.992;7.848;2024-03-07T05:40:07;9.40;57.50
2439;DHT22;14509;47.992;7.848;2024-03-07T05:42:09;9.40;57.60
2439;DHT22;14509;47.992;7.848;2024-03-07T05:44:14;9.40;57.60
2439;DHT22;14509;47.992;7.848;2024-03-07T05:46:16;9.40;57.70
2439;DHT22;14509;47.992;7.848;2024-03-07T05:48:17;9.30;57.60
2439;DHT22;14509;47.992;7.848;2024-03-07T05:50:19;9.40;57.60
2439;DHT22;14509;47.992;7.848;2024-03-07T05:52:21;9.30;57.40
2439;DHT22;14509;47.992;7.848;2024-03-07T05:54:23;9.20;57.40
2439;DHT22;14509;47.992;7.848;2024-03-07T05:56:25;9.20;57.50
2439;DHT22;14509;47.992;7.848;2024-03-07T05:58:27;9.20;57.50
2439;DHT22;14509;47.992;7.848;2024-03-07T06:00:29;9.10;57.40
2439;DHT22;14509;47.992;7.848;2024-03-07T06:02:35;9.10;57.40
2439;DHT22;14509;47.992;7.848;2024-03-07T06:04:37;9.10;57.50
2439;DHT22;14509;47.992;7.848;2024-03-07T06:06:39;9.10;57.80
2439;DHT22;14509;47.992;7.848;2024-03-07T06:08:42;9.10;58.00
2439;DHT22;14509;47.992;7.848;2024-03-07T06:10:47;9.00;58.00
2439;DHT22;14509;47.992;7.848;2024-03-07T06:12:50;9.10;58.10
2439;DHT22;14509;47.992;7.848;2024-03-07T06:14:52;9.10;58.10
2439;DHT22;14509;47.992;7.848;2024-03-07T06:16:55;9.10;58.20
2439;DHT22;14509;47.992;7.848;2024-03-07T06:18:59;9.20;58.50
2439;DHT22;14509;47.992;7.848;2024-03-07T06:21:02;9.20;58.80
2439;DHT22;14509;47.992;7.848;2024-03-07T06:23:05;9.30;59.10
2439;DHT22;14509;47.992;7.848;2024-03-07T06:25:06;9.40;59.40
2439;DHT22;14509;47.992;7.848;2024-03-07T06:27:11;9.50;59.60
2439;DHT22;14509;47.992;7.848;2024-03-07T06:29:17;9.60;59.60
2439;DHT22;14509;47.992;7.848;2024-03-07T06:31:19;9.80;59.70
2439;DHT22;14509;47.992;7.848;2024-03-07T06:33:21;9.90;59.60
2439;DHT22;14509;47.992;7.848;2024-03-07T06:35:22;10.10;58.70
2439;DHT22;14509;47.992;7.848;2024-03-07T06:37:24;10.20;58.60
2439;DHT22;14509;47.992;7.848;2024-03-07T06:39:26;10.30;58.60
2439;DHT22;14509;47.992;7.848;2024-03-07T06:41:27;10.40;58.40
2439;DHT22;14509;47.992;7.848;2024-03-07T06:43:30;10.60;58.50
2439;DHT22;14509;47.992;7.848;2024-03-07T06:45:32;10.70;58.30
2439;DHT22;14509;47.992;7.848;2024-03-07T06:47:33;11.70;59.00
2439;DHT22;14509;47.992;7.848;2024-03-07T06:49:35;11.10;58.40
2439;DHT22;14509;47.992;7.848;2024-03-07T06:51:37;10.90;58.10
2439;DHT22;14509;47.992;7.848;2024-03-07T06:53:39;11.00;58.10
2439;DHT22;14509;47.992;7.848;2024-03-07T06:55:41;11.10;58.00
2439;DHT22;14509;47.992;7.848;2024-03-07T06:57:43;11.30;58.10
2439;DHT22;14509;47.992;7.848;2024-03-07T06:59:46;11.40;57.80
2439;DHT22;14509;47.992;7.848;2024-03-07T07:01:48;11.40;57.50
2439;DHT22;14509;47.992;7.848;2024-03-07T07:03:50;11.50;57.50
2439;DHT22;14509;47.992;7.848;2024-03-07T07:05:52;11.60;57.50
2439;DHT22;14509;47.992;7.848;2024-03-07T07:07:53;11.70;57.40
2439;DHT22;14509;47.992;7.848;2024-03-07T07:09:55;11.80;57.30
2439;DHT22;14509;47.992;7.848;2024-03-07T07:11:55;11.90;57.10
2439;DHT22;14509;47.992;7.848;2024-03-07T07:13:57;12.00;57.00
2439;DHT22;14509;47.992;7.848;2024-03-07T07:16:01;12.00;56.80
2439;DHT22;14509;47.992;7.848;2024-03-07T07:18:03;12.10;56.60
2439;DHT22;14509;47.992;7.848;2024-03-07T07:20:05;12.20;56.50
2439;DHT22;14509;47.992;7.848;2024-03-07T07:22:10;12.30;56.50
2439;DHT22;14509;47.992;7.848;2024-03-07T07:24:12;12.30;56.30
2439;DHT22;14509;47.992;7.848;2024-03-07T07:26:14;12.40;56.20
2439;DHT22;14509;47.992;7.848;2024-03-07T07:28:16;12.50;56.00
2439;DHT22;14509;47.992;7.848;2024-03-07T07:30:19;12.50;55.70
2439;DHT22;14509;47.992;7.848;2024-03-07T07:32:24;12.70;55.80
2439;DHT22;14509;47.992;7.848;2024-03-07T07:34:26;12.70;55.60
2439;DHT22;14509;47.992;7.848;2024-03-07T07:36:28;12.80;55.50
2439;DHT22;14509;47.992;7.848;2024-03-07T07:38:30;12.90;55.20
2439;DHT22;14509;47.992;7.848;2024-03-07T07:40:32;13.00;55.10
2439;DHT22;14509;47.992;7.848;2024-03-07T07:42:34;13.20;54.90
2439;DHT22;14509;47.992;7.848;2024-03-07T07:44:36;13.30;54.50
2439;DHT22;14509;47.992;7.848;2024-03-07T07:46:37;13.40;54.00
2439;DHT22;14509;47.992;7.848;2024-03-07T07:48:42;13.50;53.60
2439;DHT22;14509;47.992;7.848;2024-03-07T07:50:44;13.60;52.90
2439;DHT22;14509;47.992;7.848;2024-03-07T07:52:47;13.70;52.40
2439;DHT22;14509;47.992;7.848;2024-03-07T07:54:48;13.80;52.40
2439;DHT22;14509;47.992;7.848;2024-03-07T07:56:50;13.90;52.00
2439;DHT22;14509;47.992;7.848;2024-03-07T07:58:52;13.90;51.60
2439;DHT22;14509;47.992;7.848;2024-03-07T08:04:18;14.10;50.60
2439;DHT22;14509;47.992;7.848;2024-03-07T08:06:20;14.10;50.10
2439;DHT22;14509;47.992;7.848;2024-03-07T08:08:21;14.20;49.90
2439;DHT22;14509;47.992;7.848;2024-03-07T08:10:25;14.20;49.80
2439;DHT22;14509;47.992;7.848;2024-03-07T08:12:29;14.30;49.60
2439;DHT22;14509;47.992;7.848;2024-03-07T08:14:30;14.40;49.40
2439;DHT22;14509;47.992;7.848;2024-03-07T08:16:32;14.40;49.40
2439;DHT22;14509;47.992;7.848;2024-03-07T08:18:33;14.60;49.40
2439;DHT22;14509;47.992;7.848;2024-03-07T08:20:36;14.60;49.00
2439;DHT22;14509;47.992;7.848;2024-03-07T08:22:39;14.70;48.50
2439;DHT22;14509;47.992;7.848;2024-03-07T08:24:41;14.80;48.60
2439;DHT22;14509;47.992;7.848;2024-03-07T08:26:44;14.70;48.80
2439;DHT22;14509;47.992;7.848;2024-03-07T08:28:47;14.70;48.80
2439;DHT22;14509;47.992;7.848;2024-03-07T08:30:49;14.70;48.70
2439;DHT22;14509;47.992;7.848;2024-03-07T08:32:53;14.70;48.50
2439;DHT22;14509;47.992;7.848;2024-03-07T08:34:55;14.60;48.70
2439;DHT22;14509;47.992;7.848;2024-03-07T08:36:58;14.50;48.80
2439;DHT22;14509;47.992;7.848;2024-03-07T08:39:00;14.50;49.00
2439;DHT22;14509;47.992;7.848;2024-03-07T08:41:04;14.40;48.80
2439;DHT22;14509;47.992;7.848;2024-03-07T08:43:06;14.30;48.80
2439;DHT22;14509;47.992;7.848;2024-03-07T08:45:08;14.20;48.60
2439;DHT22;14509;47.992;7.848;2024-03-07T08:47:11;14.20;48.70
2439;DHT22;14509;47.992;7.848;2024-03-07T08:49:12;14.20;48.90
2439;DHT22;14509;47.992;7.848;2024-03-07T08:51:17;14.20;49.20
2439;DHT22;14509;47.992;7.848;2024-03-07T08:53:20;14.60;49.60
2439;DHT22;14509;47.992;7.848;2024-03-07T08:55:24;14.20;49.30
2439;DHT22;14509;47.992;7.848;2024-03-07T08:57:25;14.30;49.30
2439;DHT22;14509;47.992;7.848;2024-03-07T08:59:27;14.30;49.50
2439;DHT22;14509;47.992;7.848;2024-03-07T09:01:29;14.30;49.30
2439;DHT22;14509;47.992;7.848;2024-03-07T09:03:30;14.30;49.10
2439;DHT22;14509;47.992;7.848;2024-03-07T09:05:33;14.30;49.10
2439;DHT22;14509;47.992;7.848;2024-03-07T09:07:34;14.20;49.00
2439;DHT22;14509;47.992;7.848;2024-03-07T09:09:37;14.20;49.20
2439;DHT22;14509;47.992;7.848;2024-03-07T09:11:39;14.10;49.10
2439;DHT22;14509;47.992;7.848;2024-03-07T09:13:43;14.00;49.40
2439;DHT22;14509;47.992;7.848;2024-03-07T09:15:44;13.90;49.50
2439;DHT22;14509;47.992;7.848;2024-03-07T09:17:47;13.90;49.60
2439;DHT22;14509;47.992;7.848;2024-03-07T09:19:49;13.80;49.40
2439;DHT22;14509;47.992;7.848;2024-03-07T09:21:51;13.80;49.60
2439;DHT22;14509;47.992;7.848;2024-03-07T09:23:53;13.80;50.00
2439;DHT22;14509;47.992;7.848;2024-03-07T09:25:56;13.80;49.70
2439;DHT22;14509;47.992;7.848;2024-03-07T09:27:59;13.80;49.50
2439;DHT22;14509;47.992;7.848;2024-03-07T09:30:01;13.80;49.50
2439;DHT22;14509;47.992;7.848;2024-03-07T09:32:04;13.90;49.40
2439;DHT22;14509;47.992;7.848;2024-03-07T09:34:08;13.90;49.50
2439;DHT22;14509;47.992;7.848;2024-03-07T09:36:10;14.00;49.60
2439;DHT22;14509;47.992;7.848;2024-03-07T09:38:13;14.10;49.50
2439;DHT22;14509;47.992;7.848;2024-03-07T09:40:15;14.30;48.90
2439;DHT22;14509;47.992;7.848;2024-03-07T09:42:18;14.30;49.00
2439;DHT22;14509;47.992;7.848;2024-03-07T09:44:22;14.40;49.00
2439;DHT22;14509;47.992;7.848;2024-03-07T09:46:26;14.40;48.80
2439;DHT22;14509;47.992;7.848;2024-03-07T09:48:29;14.50;48.50
2439;DHT22;14509;47.992;7.848;2024-03-07T09:50:31;14.60;48.70
2439;DHT22;14509;47.992;7.848;2024-03-07T09:52:33;14.70;48.40
2439;DHT22;14509;47.992;7.848;2024-03-07T09:54:36;14.80;47.90
2439;DHT22;14509;47.992;7.848;2024-03-07T09:56:39;15.00;47.50
2439;DHT22;14509;47.992;7.848;2024-03-07T09:58:44;15.10;47.30
2439;DHT22;14509;47.992;7.848;2024-03-07T10:00:49;15.20;47.30
2439;DHT22;14509;47.992;7.848;2024-03-07T10:02:55;15.30;47.50
2439;DHT22;14509;47.992;7.848;2024-03-07T10:04:58;15.40;47.00
2439;DHT22;14509;47.992;7.848;2024-03-07T10:07:01;15.50;46.60
2439;DHT22;14509;47.992;7.848;2024-03-07T10:09:03;15.60;46.50
2439;DHT22;14509;47.992;7.848;2024-03-07T10:11:06;15.70;46.30
2439;DHT22;14509;47.992;7.848;2024-03-07T10:13:08;15.70;46.40
2439;DHT22;14509;47.992;7.848;2024-03-07T10:15:12;15.80;46.30
2439;DHT22;14509;47.992;7.848;2024-03-07T10:17:14;16.00;45.70
2439;DHT22;14509;47.992;7.848;2024-03-07T10:19:17;16.10;45.10
2439;DHT22;14509;47.992;7.848;2024-03-07T10:21:19;16.20;44.70
2439;DHT22;14509;47.992;7.848;2024-03-07T10:23:21;16.40;44.80
2439;DHT22;14509;47.992;7.848;2024-03-07T10:25:23;16.40;44.80
2439;DHT22;14509;47.992;7.848;2024-03-07T10:27:28;16.50;44.70
2439;DHT22;14509;47.992;7.848;2024-03-07T10:29:30;16.60;44.50
2439;DHT22;14509;47.992;7.848;2024-03-07T10:31:34;16.60;44.70
2439;DHT22;14509;47.992;7.848;2024-03-07T10:33:37;16.70;44.70
2439;DHT22;14509;47.992;7.848;2024-03-07T10:35:40;16.80;44.40
2439;DHT22;14509;47.992;7.848;2024-03-07T10:37:41;16.90;43.70
2439;DHT22;14509;47.992;7.848;2024-03-07T10:39:45;16.90;44.00
2439;DHT22;14509;47.992;7.848;2024-03-07T10:41:48;16.70;44.50
2439;DHT22;14509;47.992;7.848;2024-03-07T10:43:52;16.40;45.40
2439;DHT22;14509;47.992;7.848;2024-03-07T10:46:00;16.10;45.40
2439;DHT22;14509;47.992;7.848;2024-03-07T10:48:11;16.00;46.20
2439;DHT22;14509;47.992;7.848;2024-03-07T10:50:19;15.40;46.50
2439;DHT22;14509;47.992;7.848;2024-03-07T10:52:28;15.20;47.50
2439;DHT22;14509;47.992;7.848;2024-03-07T10:54:46;14.90;48.10
2439;DHT22;14509;47.992;7.848;2024-03-07T10:56:56;14.70;48.70
2439;DHT22;14509;47.992;7.848;2024-03-07T10:59:10;14.50;49.20
2439;DHT22;14509;47.992;7.848;2024-03-07T11:01:16;14.40;49.50
2439;DHT22;14509;47.992;7.848;2024-03-07T11:03:21;14.40;49.90
2439;DHT22;14509;47.992;7.848;2024-03-07T11:05:26;14.40;50.10
2439;DHT22;14509;47.992;7.848;2024-03-07T11:07:30;14.40;50.50
2439;DHT22;14509;47.992;7.848;2024-03-07T11:09:33;14.50;50.70
2439;DHT22;14509;47.992;7.848;2024-03-07T11:11:37;14.70;50.20
2439;DHT22;14509;47.992;7.848;2024-03-07T11:13:41;15.00;49.70
2439;DHT22;14509;47.992;7.848;2024-03-07T11:15:47;15.20;49.20
2439;DHT22;14509;47.992;7.848;2024-03-07T11:17:50;15.50;48.40
2439;DHT22;14509;47.992;7.848;2024-03-07T11:20:18;15.70;48.00
2439;DHT22;14509;47.992;7.848;2024-03-07T11:22:39;15.90;47.60
2439;DHT22;14509;47.992;7.848;2024-03-07T11:24:42;16.00;46.90
2439;DHT22;14509;47.992;7.848;2024-03-07T11:26:47;16.00;46.40
2439;DHT22;14509;47.992;7.848;2024-03-07T11:28:48;16.10;46.50
2439;DHT22;14509;47.992;7.848;2024-03-07T11:30:51;16.20;46.80
2439;DHT22;14509;47.992;7.848;2024-03-07T11:32:54;16.30;46.60
2439;DHT22;14509;47.992;7.848;2024-03-07T11:34:58;16.50;46.10
2439;DHT22;14509;47.992;7.848;2024-03-07T11:37:01;16.70;44.70
2439;DHT22;14509;47.992;7.848;2024-03-07T11:39:05;16.90;44.90
2439;DHT22;14509;47.992;7.848;2024-03-07T11:41:24;17.00;44.50
2439;DHT22;14509;47.992;7.848;2024-03-07T11:43:27;17.20;44.10
2439;DHT22;14509;47.992;7.848;2024-03-07T11:45:30;17.30;43.80
2439;DHT22;14509;47.992;7.848;2024-03-07T11:47:38;17.50;43.30
2439;DHT22;14509;47.992;7.848;2024-03-07T11:49:40;17.50;43.40
2439;DHT22;14509;47.992;7.848;2024-03-07T11:51:45;17.60;42.80
2439;DHT22;14509;47.992;7.848;2024-03-07T11:53:48;17.70;42.50
2439;DHT22;14509;47.992;7.848;2024-03-07T11:55:52;17.70;42.20
2439;DHT22;14509;47.992;7.848;2024-03-07T11:57:55;17.70;42.10
2439;DHT22;14509;47.992;7.848;2024-03-07T11:59:57;17.70;42.20
2439;DHT22;14509;47.992;7.848;2024-03-07T12:02:01;17.60;42.00
2439;DHT22;14509;47.992;7.848;2024-03-07T12:04:05;17.60;42.20
2439;DHT22;14509;47.992;7.848;2024-03-07T12:06:08;17.50;42.70
2439;DHT22;14509;47.992;7.848;2024-03-07T12:08:14;17.40;42.80
2439;DHT22;14509;47.992;7.848;2024-03-07T12:10:16;17.60;43.10
2439;DHT22;14509;47.992;7.848;2024-03-07T12:12:25;17.70;42.70
2439;DHT22;14509;47.992;7.848;2024-03-07T12:14:28;17.80;42.40
2439;DHT22;14509;47.992;7.848;2024-03-07T12:16:31;17.80;41.90
2439;DHT22;14509;47.992;7.848;2024-03-07T12:18:33;17.80;41.40
2439;DHT22;14509;47.992;7.848;2024-03-07T12:20:37;17.70;42.10
2439;DHT22;14509;47.992;7.848;2024-03-07T12:22:39;17.70;41.50
2439;DHT22;14509;47.992;7.848;2024-03-07T12:24:41;17.70;41.80
2439;DHT22;14509;47.992;7.848;2024-03-07T12:26:43;17.70;41.20
2439;DHT22;14509;47.992;7.848;2024-03-07T12:28:44;17.70;41.80
2439;DHT22;14509;47.992;7.848;2024-03-07T12:30:49;17.80;42.10
2439;DHT22;14509;47.992;7.848;2024-03-07T12:32:53;17.80;42.20
2439;DHT22;14509;47.992;7.848;2024-03-07T12:34:55;17.90;41.60
2439;DHT22;14509;47.992;7.848;2024-03-07T12:36:57;17.90;41.50
2439;DHT22;14509;47.992;7.848;2024-03-07T12:38:59;18.00;41.30
2439;DHT22;14509;47.992;7.848;2024-03-07T12:41:11;17.90;41.40
2439;DHT22;14509;47.992;7.848;2024-03-07T12:43:17;17.90;41.30
2439;DHT22;14509;47.992;7.848;2024-03-07T12:45:19;17.80;41.40
2439;DHT22;14509;47.992;7.848;2024-03-07T12:47:20;17.70;41.30
2439;DHT22;14509;47.992;7.848;2024-03-07T12:49:24;17.70;41.60
2439;DHT22;14509;47.992;7.848;2024-03-07T12:51:27;17.70;42.00
2439;DHT22;14509;47.992;7.848;2024-03-07T12:53:29;17.80;41.90
2439;DHT22;14509;47.992;7.848;2024-03-07T12:55:32;17.90;41.50
2439;DHT22;14509;47.992;7.848;2024-03-07T12:57:34;17.90;41.20
2439;DHT22;14509;47.992;7.848;2024-03-07T12:59:41;18.00;41.60
2439;DHT22;14509;47.992;7.848;2024-03-07T13:01:43;18.10;42.30
2439;DHT22;14509;47.992;7.848;2024-03-07T13:03:48;18.30;42.30
2439;DHT22;14509;47.992;7.848;2024-03-07T13:05:50;18.50;42.10
2439;DHT22;14509;47.992;7.848;2024-03-07T13:07:52;18.60;41.80
2439;DHT22;14509;47.992;7.848;2024-03-07T13:09:54;18.90;41.60
2439;DHT22;14509;47.992;7.848;2024-03-07T13:11:57;18.90;41.00
2439;DHT22;14509;47.992;7.848;2024-03-07T13:14:02;19.10;40.20
2439;DHT22;14509;47.992;7.848;2024-03-07T13:16:05;19.00;40.10